Tiempo atmosférico en la estación meteorológica de Villanueva De Córdoba, Córdoba (740 m.)



Fecha
DESCASC
Temp. máxima en grados centígrados (hora)
DESCASC
Temp. mínima en grados centígrados (hora)
DESCASC
Temp. media en grados centígrados
DESCASC
Racha de viento máxima en m/sg (hora)
DESCASC
Velocidad máxima media en intervalos de 10 minutos(hora)
DESCASC
Precipitaciones diarias en mm
DESCASC
Precipitaciones de 00:00 a 06:00 en mm
DESCASC
Precipitaciones de 06:00 a 12:00 en mm
DESCASC
Precipitaciones de 12:00 a 18:00 en mm
DESCASC
Precipitaciones de 18:00 a 24:00 en mm
DESCASC
14-07-2019 32.2 (17:50) 16.1 (00:00) 24.2 12.22 (15:40) 4.72 (16:20) 0 0 0 0 0
13-07-2019 31.7 (16:40) 19.1 (00:00) 25.4 12.22 (18:40) 6.11 (19:00) 0 0 0 0 0
12-07-2019 38.2 (18:40) 21.5 (00:00) 29.9 8.61 (14:20) 4.17 (14:00) 0 0 0 0 0
11-07-2019 39.4 (17:00) 19.4 (00:00) 29.4 7.78 (13:00) 3.61 (17:50) 0 0 0 0 0
10-07-2019 35 (18:10) 18.5 (00:00) 26.8 7.5 (13:40) 3.61 (15:20) 0 0 0 0 0
09-07-2019 29.1 (16:40) 14.6 (00:00) 21.9 8.89 (12:40) 3.89 (12:40) 0 0 0 0 0
08-07-2019 27.9 (16:30) 14.4 (00:00) 21.1 12.22 (16:30) 6.11 (17:10) 0 0 0 0 0
07-07-2019 33.3 (17:10) 16.1 (00:00) 24.7 11.39 (20:10) 5.28 (19:40) 0 0 0 0 0
06-07-2019 33.5 (16:20) 17.5 (00:00) 25.5 10.56 (15:30) 5.28 (16:50) 0 0 0 0 0
05-07-2019 32.6 (17:20) 15.8 (00:00) 24.2 10.83 (16:20) 5.56 (16:20) 0 0 0 0 0
04-07-2019 31 (16:40) 16.2 (00:00) 23.6 10.28 (15:10) 4.72 (18:00) 0 0 0 0 0
03-07-2019 32.2 (16:40) 16.3 (00:00) 24.3 11.11 (17:50) 5 (18:50) 0 0 0 0 0
02-07-2019 34.2 (16:20) 17.6 (07:40) 25.9 8.61 (17:00) 4.17 (20:10) 0 0 0 0 0
01-07-2019 34.2 (16:50) 17.7 (07:30) 26 8.33 (20:50) 5.28 (20:50) 0 0 0 0 0
30-06-2019 35.9 (16:30) 19.9 (00:00) 27.9 10.28 (15:00) 5.28 (18:50) 0 0 0 0 0
29-06-2019 40.1 (16:50) 19.7 (00:00) 29.9 8.61 (21:00) 4.72 (21:00) 0 0 0 0 0
28-06-2019 39.1 (18:00) 19.5 (00:00) 29.3 11.11 (14:00) 4.72 (15:10) 0 0 0 0 0
27-06-2019 34.2 (17:40) 18.4 (00:00) 26.3 9.17 (15:10) 4.17 (18:00) 0 0 0 0 0
26-06-2019 32.9 (17:50) 18 (00:00) 25.5 8.89 (18:40) 3.89 (15:20) 0 0 0 0 0
25-06-2019 33.6 (18:20) 15.7 (00:00) 24.6 10.28 (19:10) 5 (18:30) 0 0 0 0 0
24-06-2019 31.2 (18:00) 17.7 (00:00) 24.5 8.33 (17:50) 4.44 (16:10) 0 0 0 0 0
23-06-2019 33.7 (16:00) 15.2 (00:00) 24.5 10.83 (16:40) 5.28 (16:50) 0 0 0 0 0
22-06-2019 32.2 (17:30) 17 (00:00) 24.6 7.78 (15:50) 3.89 (13:50) 0 0 0 0 0
21-06-2019 28.4 (19:00) 12.7 (00:00) 20.5 10 (15:10) 4.17 (16:20) 0 0 0 0 0
20-06-2019 29 (17:50) 14.2 (00:00) 21.6 10.28 (20:20) 5.28 (20:30) 0 0 0 0 0
19-06-2019 29.9 (17:40) 13.4 (00:00) 21.6 8.89 (18:30) 4.17 (17:20) 0 0 0 0 0
18-06-2019 28.7 (17:00) 15 (00:00) 21.9 12.22 (13:30) 6.11 (13:30) 0 0 0 0 0
17-06-2019 30.2 (17:50) 13.2 (00:00) 21.7 11.11 (16:00) 5.83 (16:10) 0 0 0 0 0
16-06-2019 28.4 (13:20) 15.4 (00:00) 21.9 8.61 (18:50) 4.44 (18:50) 0 0 0 0 0

Gráficas

Temp. máximas Temp. mínimas Temp. medias Precipitaciones Rachas de viento máximas Velocidades máximas media en intervalos de 10 minutos

Datos horarios

Fecha y hora oficial Temperatura (ºC) Velocidad del viento (km/h) Dirección del viento Racha (km/h) Dirección de racha Precipitación (mm) Presión (hPa) Tendencia (hPa) Humedad (%)
2019-07-15 23:00:00 27.3 9 Sudoeste 18 Sudeste 0 929.9 1.5 36
2019-07-15 22:00:00 29.2 8 Sudoeste 25 Sudoeste 0 929.3 1 31
2019-07-15 21:00:00 31.8 12 Sudoeste 32 Sudoeste 0 928.6 0 27
2019-07-15 20:00:00 34.6 15 Sudoeste 32 Sudoeste 0 928.4 -0.5 22
2019-07-15 19:00:00 35.1 8 Sudoeste 25 Oeste 0 928.3 -1 20
2019-07-15 18:00:00 35.7 14 Sudoeste 32 Sur 0 928.6 -1.1 19
2019-07-15 17:00:00 34.9 14 Noroeste 32 Noroeste 0 928.9 -1 15
2019-07-15 16:00:00 34.3 11 Noroeste 33 Noroeste 0 929.3 -1 17
2019-07-15 15:00:00 33.5 18 Noroeste 32 Oeste 0 929.7 -0.8 19
2019-07-15 14:00:00 32.7 9 Norte 24 Noroeste 0 929.9 -0.7 21
2019-07-15 13:00:00 32.1 8 Sudoeste 30 Oeste 0 930.3 -0.3 24
2019-07-15 12:00:00 30.3 9 Oeste 21 Sudoeste 0 930.5 0.4 29
2019-07-15 11:00:00 28.1 5 Sudoeste 15 Sudoeste 0 930.6 0.6 37
2019-07-15 10:00:00 24.8 7 Sudoeste 13 Sudoeste 0 930.6 0.9 47
2019-07-15 09:00:00 21.4 6 Sur 13 Sur 0 930.1 0.6 61
2019-07-15 08:00:00 19.6 5 Sur 10 Sur 0 930 0.5 60
2019-07-15 07:00:00 20.2 7 Oeste 16 Oeste 0 929.7 0 60
2019-07-15 06:00:00 21.3 9 Oeste 17 Noroeste 0 929.5 -0.5 56
2019-07-15 05:00:00 21.5 9 Noroeste 14 Noroeste 0 929.5 -0.7 52
2019-07-15 04:00:00 22.6 8 Noroeste 16 Noroeste 0 929.7 -0.6 47
2019-07-15 03:00:00 23.4 9 Oeste 21 Noroeste 0 930 -0.2 43
2019-07-15 02:00:00 22.7 5 Sur 12 Oeste 0 930.2 0.1 48
2019-07-15 01:00:00 24.1 8 Oeste 13 Sudoeste 0 930.3 0.7 43
2019-07-15 00:00:00 24 8 Sur 13 Sur 0 930.2 0.7 36
2019-07-14 23:00:00 25.9 5 Noroeste 12 Noroeste 0 930.1 0.8 30
2019-07-14 22:00:00 27 6 Noroeste 24 Noroeste 0 929.6 0.5 27
2019-07-14 21:00:00 29.8 12 Noroeste 28 Noroeste 0 929.5 0.1 22
2019-07-14 20:00:00 31.1 12 Noroeste 30 Norte 0 929.3 -0.3 21
2019-07-14 19:00:00 31.6 17 Oeste 31 Noroeste 0 929.1 -1 20
2019-07-14 18:00:00 31.6 13 Noroeste 33 Oeste 0 929.4 -0.9 20
2019-07-14 17:00:00 31.5 13 Oeste 36 Oeste 0 929.6 -1.2 21
2019-07-14 16:00:00 31.1 8 Noroeste 44 Noroeste 0 930.1 -0.8 22
2019-07-14 15:00:00 29.9 9 Noroeste 28 Oeste 0 930.3 -0.7 25
2019-07-14 14:00:00 28.6 11 Oeste 27 Noroeste 0 930.8 -0.3 28
2019-07-14 13:00:00 26.3 13 Oeste 31 Oeste 0 930.9 -0.1 33
2019-07-14 12:00:00 24.9 14 Oeste 31 Oeste 0 931 0.4 41
2019-07-14 11:00:00 23 15 Oeste 30 Oeste 0 931.1 0.8 51
2019-07-14 10:00:00 21.1 13 Oeste 25 Oeste 0 931 0.9 60
2019-07-14 09:00:00 19.2 8 Sudoeste 19 Oeste 0 930.6 0.5 67
2019-07-14 08:00:00 17.4 8 Oeste 12 Oeste 0 930.3 0.1 73
2019-07-14 07:00:00 16.9 8 Oeste 15 Oeste 0 930.1 -0.1 73
2019-07-14 06:00:00 16.1 5 Sur 10 Sur 0 930.1 -0.4 76
2019-07-14 05:00:00 17 5 Sur 10 Sur 0 930.2 -0.6 72
2019-07-14 04:00:00 18.8 4 Sur 17 Oeste 0 930.2 -0.9 54
2019-07-14 03:00:00 20.3 10 Oeste 18 Oeste 0 930.5 -0.7 49
2019-07-14 02:00:00 20.5 11 Oeste 18 Oeste 0 930.8 -0.1 47
2019-07-14 01:00:00 21 5 Oeste 15 Noroeste 0 931.1 1.1 46
2019-07-14 00:00:00 22.3 9 Noroeste 24 Noroeste 0 931.2 1.8 42
2019-07-13 23:00:00 23.9 9 Noroeste 21 Sudoeste 0 930.9 1.8 38
2019-07-13 22:00:00 25.3 12 Sudoeste 28 Sudoeste 0 930 0.6 37
2019-07-13 21:00:00 27.6 16 Sudoeste 35 Sudoeste 0 929.4 -0.2 30
2019-07-13 20:00:00 29.2 15 Sudoeste 42 Sudoeste 0 929.1 -1.1 26
2019-07-13 19:00:00 30 22 Sudoeste 44 Sur 0 929.4 -1.2 22
2019-07-13 18:00:00 31 18 Sudoeste 38 Sudoeste 0 929.6 -1.5 20
2019-07-13 17:00:00 31.5 15 Sudoeste 42 Oeste 0 930.2 -1.5 22
2019-07-13 16:00:00 31.1 18 Sudoeste 39 Sudoeste 0 930.6 -1.4 23
2019-07-13 15:00:00 30.7 14 Sudoeste 37 Sudoeste 0 931.1 -0.9 25
2019-07-13 14:00:00 29.5 15 Sur 36 Sudoeste 0 931.7 -0.4 26
2019-07-13 13:00:00 29.1 17 Sudoeste 35 Sudoeste 0 932 0.2 28
2019-07-13 12:00:00 27.3 7 Sur 24 Sudoeste 0 932 0 31
2019-07-13 11:00:00 25.6 13 Sudoeste 28 Sudoeste 0 932.1 0.4 42
2019-07-13 10:00:00 23.9 8 Sur 15 Sur 0 931.8 0.3 53
2019-07-13 09:00:00 20.8 7 Sur 14 Sur 0 932 0.3 69
2019-07-13 08:00:00 19.1 6 Sur 13 Sudeste 0 931.7 0.2 75
2019-07-13 07:00:00 19.3 7 Sudeste 17 Sudeste 0 931.5 -0.2 73
2019-07-13 06:00:00 20.3 6 Sur 13 Sudeste 0 931.7 0 66
2019-07-13 05:00:00 21.1 4 Sur 28 Sur 0 931.5 -1.2 64
2019-07-13 04:00:00 22.7 12 Sudoeste 30 Sur 0 931.7 -0.5 56
2019-07-13 03:00:00 23.6 8 Sudeste 15 Sudeste 0 931.7 0.2 52
2019-07-13 02:00:00 24.8 10 Sur 33 Sur 0 932.7 1.4 47
2019-07-13 01:00:00 26.5 14 Sur 28 Sur 0 932.2 1.3 41
2019-07-13 00:00:00 28.6 9 Sudeste 30 Sudeste 0 931.5 0.8 33
2019-07-12 23:00:00 29.6 3 Sudeste 12 Sudoeste 0 931.3 0.5 23
2019-07-12 22:00:00 31.3 4 Noroeste 14 Noroeste 0 930.9 0.4 20
2019-07-12 21:00:00 33.3 5 Oeste 20 Noroeste 0 930.7 0.1 18
2019-07-12 20:00:00 35.2 12 Oeste 22 Noroeste 0 930.8 0.1 16
2019-07-12 19:00:00 37.6 10 Sudoeste 25 Sudeste 0 930.5 -0.5 12
2019-07-12 18:00:00 37.8 9 Sur 30 Sur 0 930.6 -0.1 13
2019-07-12 17:00:00 37.2 10 Sur 24 Sur 0 930.7 -0.9 13
2019-07-12 16:00:00 36.7 9 Sudoeste 21 Sudoeste 0 931 -1.7 14
2019-07-12 15:00:00 33.3 13 Nordeste 31 Nordeste 0 930.7 -2.2 21
2019-07-12 14:00:00 31.2 15 Nordeste 28 Nordeste 0 931.6 -1.5 22
2019-07-12 13:00:00 31.3 8 Nordeste 18 Nordeste 0 932.7 -0.2 22
2019-07-12 12:00:00 30.7 3 Sur 12 Sudoeste 0 932.9 0.4 25
2019-07-12 11:00:00 29.6 3 Sudoeste 14 Oeste 0 933.1 0.9 26
2019-07-12 10:00:00 28 3 Nordeste 10 Nordeste 0 932.9 1 30
2019-07-12 09:00:00 25.6 6 Nordeste 11 Este 0 932.5 0.6 35
2019-07-12 08:00:00 23.2 4 Este 7 Noroeste 0 932.2 0.5 43
2019-07-12 07:00:00 22.5 5 Noroeste 7 Norte 0 931.9 0.4 46
2019-07-12 06:00:00 21.9 4 Sudoeste 11 Sur 0 931.9 0.5 47
2019-07-12 05:00:00 22.3 6 Sur 15 Sur 0 931.7 0.3 45
2019-07-12 04:00:00 23.5 8 Sur 19 Sur 0 931.5 0.2 39
2019-07-12 03:00:00 24.2 10 Sur 17 Sur 0 931.4 0.8 38
2019-07-12 02:00:00 25.1 8 Sur 13 Sur 0 931.4 1.2 31
2019-07-12 01:00:00 26.6 5 Este 16 Sur 0 931.3 1.6 26
2019-07-12 00:00:00 27.7 9 Sudoeste 14 Sudoeste 0 930.6 1.2 23
2019-07-11 23:00:00 29.8 6 Sudoeste 14 Sudoeste 0 930.2 1.2 18
2019-07-11 22:00:00 32 7 Sur 18 Sur 0 929.7 0.7 14
2019-07-11 21:00:00 35.7 8 Sudoeste 19 Sur 0 929.4 0.2 12
2019-07-11 20:00:00 37.6 9 Sur 19 Sudoeste 0 929 -0.4 11
2019-07-11 19:00:00 38.6 11 Sudoeste 25 Sudoeste 0 929 -0.6 10
2019-07-11 18:00:00 39 10 Sudoeste 27 Sur 0 929.2 -0.8 11
2019-07-11 17:00:00 38.7 8 Sur 23 Sudeste 0 929.4 -1.1 11
2019-07-11 16:00:00 38.4 8 Sudoeste 22 Este 0 929.6 -1.3 11
2019-07-11 15:00:00 36.9 5 Nordeste 26 Este 0 930 -1 12
2019-07-11 14:00:00 35.3 6 Nordeste 24 Este 0 930.5 -0.5 14
2019-07-11 13:00:00 34.5 13 Este 28 Este 0 930.9 0 16
2019-07-11 12:00:00 32.3 5 Nordeste 20 Este 0 931 0.3 19
2019-07-11 11:00:00 30.3 7 Nordeste 14 Este 0 931 0.7 23
2019-07-11 10:00:00 27.8 2 Sur 9 Sudeste 0 930.9 0.9 28
2019-07-11 09:00:00 23.3 3 Sudeste 8 Sudeste 0 930.7 0.9 38
2019-07-11 08:00:00 19.5 3 Sudeste 13 Sur 0 930.3 0.5 47
2019-07-11 07:00:00 19.9 8 Sur 13 Sur 0 930 0 46
2019-07-11 06:00:00 20.5 8 Sur 16 Sudoeste 0 929.8 -0.2 44
2019-07-11 05:00:00 21 10 Sur 18 Sur 0 929.8 -0.2 42
2019-07-11 04:00:00 21.2 12 Sur 22 Sudeste 0 930 -0.1 32
2019-07-11 03:00:00 22.4 12 Sur 21 Sudeste 0 930 0 29
2019-07-11 02:00:00 23.5 9 Sur 13 Sudoeste 0 930 0.2 24
2019-07-11 01:00:00 25.5 9 Oeste 14 Oeste 0 930.1 1.1 22
2019-07-11 00:00:00 26.2 9 Oeste 13 Oeste 0 930 1.4 20
2019-07-10 23:00:00 26.4 7 Sudoeste 11 Sudoeste 0 929.8 1.3 17
2019-07-10 22:00:00 29.3 6 Sudoeste 13 Sudoeste 0 929 0.6 14
2019-07-10 21:00:00 33.6 4 Oeste 18 Oeste 0 928.6 0 11
2019-07-10 20:00:00 34.5 8 Sudoeste 18 Sudoeste 0 928.5 -0.5 10
2019-07-10 19:00:00 33.9 8 Noroeste 19 Oeste 0 928.4 -1.1 12
2019-07-10 18:00:00 34.9 6 Sur 18 Sudoeste 0 928.6 -1.3 12
2019-07-10 17:00:00 34.3 10 Oeste 21 Oeste 0 929 -1.3 12
2019-07-10 16:00:00 33.7 5 Sudoeste 25 Sudoeste 0 929.5 -1.1 13
2019-07-10 15:00:00 33.6 11 Sur 27 Sur 0 929.9 -0.7 14
2019-07-10 14:00:00 32.1 8 Sudoeste 27 Oeste 0 930.3 -0.2 16
2019-07-10 13:00:00 31.4 7 Sudoeste 25 Sudeste 0 930.6 0.1 19
2019-07-10 12:00:00 30.2 8 Sudeste 21 Este 0 930.6 0.3 21
2019-07-10 11:00:00 28.9 10 Sudeste 24 Sudeste 0 930.5 0.5 24
2019-07-10 10:00:00 26.9 6 Sudeste 17 Sudeste 0 930.5 0.6 27
2019-07-10 09:00:00 23.3 8 Este 14 Este 0 930.3 0.5 33
2019-07-10 08:00:00 19.7 5 Sudeste 8 Este 0 930 0.2 42
2019-07-10 07:00:00 18.6 6 Nordeste 9 Nordeste 0 929.9 0 45
2019-07-10 06:00:00 19 6 Norte 12 Norte 0 929.8 -0.2 43
2019-07-10 05:00:00 19.3 6 Norte 12 Norte 0 929.8 -0.6 43
2019-07-10 04:00:00 20.1 6 Norte 11 Norte 0 929.9 -0.6 40
2019-07-10 03:00:00 20.4 6 Noroeste 9 Noroeste 0 930 -0.8 39
2019-07-10 02:00:00 20.4 5 Noroeste 8 Noroeste 0 930.4 -0.3 41
2019-07-10 01:00:00 20.9 4 Oeste 8 Sur 0 930.5 0.6 44
2019-07-10 00:00:00 21.6 6 Sur 9 Sur 0 930.8 1.2 42
2019-07-09 23:00:00 23 5 Sur 11 Sudeste 0 930.7 1.4 32
2019-07-09 22:00:00 24.9 4 Noroeste 12 Norte 0 929.9 0.5 27
2019-07-09 21:00:00 26.9 5 Norte 14 Noroeste 0 929.6 0.1 25
2019-07-09 20:00:00 27.7 7 Noroeste 23 Noroeste 0 929.3 -0.5 23
2019-07-09 19:00:00 27.9 10 Noroeste 24 Noroeste 0 929.4 -0.7 23
2019-07-09 18:00:00 28.3 5 Norte 28 Noroeste 0 929.5 -1 24
2019-07-09 17:00:00 26.9 12 Noroeste 24 Noroeste 0 929.8 -1.1 26
2019-07-09 16:00:00 27.3 9 Noroeste 22 Noroeste 0 930.1 -0.9 26
2019-07-09 15:00:00 24.9 6 Norte 21 Oeste 0 930.5 -0.8 31
2019-07-09 14:00:00 25.1 12 Oeste 25 Noroeste 0 930.9 -0.5 31
2019-07-09 13:00:00 25.3 8 Oeste 32 Noroeste 0 931 -0.2 32
2019-07-09 12:00:00 24.5 7 Oeste 24 Oeste 0 931.3 0.6 34
2019-07-09 11:00:00 22.4 11 Oeste 22 Noroeste 0 931.4 0.9 44
2019-07-09 10:00:00 20.2 7 Noroeste 17 Norte 0 931.2 1 53
2019-07-09 09:00:00 17.3 6 Noroeste 13 Noroeste 0 930.7 0.5 67
2019-07-09 08:00:00 15.4 6 Noroeste 13 Oeste 0 930.5 0.3 72
2019-07-09 07:00:00 14.6 7 Oeste 12 Oeste 0 930.2 -0.2 71
2019-07-09 06:00:00 14.9 5 Oeste 12 Oeste 0 930.2 -0.3 67
2019-07-09 05:00:00 15.1 5 Sudoeste 19 Oeste 0 930.2 -0.2 68
2019-07-09 04:00:00 15.5 10 Sudoeste 20 Oeste 0 930.4 -0.2 67
2019-07-09 03:00:00 15.9 6 Sur 12 Sur 0 930.5 -0.2 67
2019-07-09 02:00:00 17.2 4 Sur 14 Sudoeste 0 930.4 0.1 57
2019-07-09 01:00:00 18.5 6 Sudoeste 17 Oeste 0 930.6 1 48
2019-07-09 00:00:00 19.2 9 Oeste 18 Noroeste 0 930.7 2.1 41
2019-07-08 23:00:00 20.6 9 Noroeste 26 Oeste 0 930.3 2.3 37
2019-07-08 22:00:00 22.2 16 Oeste 31 Oeste 0 929.6 1.7 31
2019-07-08 21:00:00 23.1 14 Oeste 34 Oeste 0 928.6 0.5 32
2019-07-08 20:00:00 24.4 19 Oeste 36 Oeste 0 928 -0.3 30
2019-07-08 19:00:00 25 16 Oeste 31 Oeste 0 927.9 -0.7 30
2019-07-08 18:00:00 26 14 Oeste 41 Sudoeste 0 928.1 -0.7 25
2019-07-08 17:00:00 27.6 16 Sudoeste 44 Sudoeste 0 928.3 -0.9 22
2019-07-08 16:00:00 27.3 17 Sudoeste 36 Sudoeste 0 928.6 -1 24
2019-07-08 15:00:00 26.2 16 Oeste 36 Sudoeste 0 928.8 -1 29
2019-07-08 14:00:00 25.5 9 Sudoeste 30 Sudoeste 0 929.2 -0.8 30
2019-07-08 13:00:00 25.9 12 Sur 29 Sur 0 929.6 -0.4 33
2019-07-08 12:00:00 24.6 10 Sudoeste 25 Sudoeste 0 929.8 0 35
2019-07-08 11:00:00 23.8 6 Sur 18 Sur 0 930 0.6 41
2019-07-08 10:00:00 21.3 6 Sur 11 Sur 0 930 0.9 48
2019-07-08 09:00:00 17.2 4 Sudoeste 10 Oeste 0 929.8 0.9 64
2019-07-08 08:00:00 15.3 4 Oeste 7 Oeste 0 929.4 0.6 69
2019-07-08 07:00:00 14.7 5 Oeste 14 Oeste 0 929.1 0.3 71
2019-07-08 06:00:00 14.6 5 Sur 10 Oeste 0 928.9 -0.1 75
2019-07-08 05:00:00 15.2 5 Sur 10 Sur 0 928.8 -0.3 73
2019-07-08 04:00:00 15.9 6 Sudoeste 12 Sur 0 928.8 -0.3 69
2019-07-08 03:00:00 17.2 7 Sur 16 Sudeste 0 929 0 62
2019-07-08 02:00:00 18.8 6 Sur 14 Oeste 0 929.1 0.3 56
2019-07-08 01:00:00 20.1 10 Oeste 18 Oeste 0 929.1 1.1 53
2019-07-08 00:00:00 21.6 12 Oeste 26 Sudoeste 0 929 1.6 47
2019-07-07 23:00:00 23 13 Sudoeste 29 Sudoeste 0 928.8 1.8 39
2019-07-07 22:00:00 25.4 13 Sudoeste 31 Sur 0 928 0.9 30
2019-07-07 21:00:00 28.9 17 Sudoeste 41 Sudoeste 0 927.4 0.1 17
2019-07-07 20:00:00 30.8 18 Sudoeste 35 Sudoeste 0 927 -0.8 13
2019-07-07 19:00:00 31.9 17 Sudoeste 37 Sudoeste 0 927.1 -1.2 14
2019-07-07 18:00:00 33.1 14 Sudoeste 39 Sudoeste 0 927.3 -1.5 12
2019-07-07 17:00:00 33 14 Sudoeste 36 Sudoeste 0 927.8 -1.8 16
2019-07-07 16:00:00 32.9 10 Sudoeste 34 Sudoeste 0 928.3 -1.7 15
2019-07-07 15:00:00 32.2 11 Sur 29 Sudoeste 0 928.8 -1.3 16
2019-07-07 14:00:00 31.3 9 Sudoeste 27 Sudoeste 0 929.6 -0.5 18
2019-07-07 13:00:00 28.9 7 Sudeste 22 Sur 0 930 -0.4 25
2019-07-07 12:00:00 28.4 5 Sur 17 Este 0 930.1 -0.8 28
2019-07-07 11:00:00 25.8 8 Este 21 Este 0 930.1 -0.9 33
2019-07-07 10:00:00 22.1 9 Nordeste 17 Nordeste 0 930.4 -0.4 45
2019-07-07 09:00:00 19.2 6 Norte 13 Norte 0 930.9 0.8 58
2019-07-07 08:00:00 16.6 3 Sudoeste 10 Noroeste 0 931 0.5 63
2019-07-07 07:00:00 16.6 6 Norte 18 Noroeste 0 930.8 -0.2 61
2019-07-07 06:00:00 17.8 10 Noroeste 19 Noroeste 0 930.1 -0.7 55
2019-07-07 05:00:00 17.8 7 Noroeste 19 Sur 0 930.5 -0.8 53
2019-07-07 04:00:00 19 13 Sur 23 Sur 0 931 0 49
2019-07-07 03:00:00 19.3 6 Oeste 14 Sudoeste 0 930.8 -0.4 50
2019-07-07 02:00:00 20.8 6 Sur 16 Sudoeste 0 931.3 0.1 46
2019-07-07 01:00:00 21.9 11 Oeste 22 Sudoeste 0 931 1.4 43
2019-07-07 00:00:00 23.5 13 Sudoeste 27 Sudoeste 0 931.2 2 35
2019-07-06 23:00:00 24.7 14 Sur 28 Sur 0 931.2 2.5 27
2019-07-06 22:00:00 26.4 11 Sur 26 Sur 0 929.6 0.4 16
2019-07-06 21:00:00 29 15 Sudoeste 27 Sudoeste 0 929.2 -0.6 13
2019-07-06 20:00:00 29.9 10 Sudoeste 33 Sudoeste 0 928.7 -1.4 13
2019-07-06 19:00:00 31 14 Sudoeste 33 Sudoeste 0 929.2 -1.1 15
2019-07-06 18:00:00 32.2 14 Sur 36 Sur 0 929.8 -1 15
2019-07-06 17:00:00 32 18 Sudoeste 36 Sudoeste 0 930.1 -1.1 15
2019-07-06 16:00:00 33.3 10 Sudoeste 38 Sudoeste 0 930.3 -0.7 15
2019-07-06 15:00:00 32.3 10 Oeste 33 Sudoeste 0 930.8 -0.4 18
2019-07-06 14:00:00 31.4 12 Sur 31 Sudoeste 0 931.2 -0.2 20
2019-07-06 13:00:00 30.7 10 Sur 27 Sudoeste 0 931 -0.4 23
2019-07-06 12:00:00 29.4 10 Sur 26 Sur 0 931.2 0.4 24
2019-07-06 11:00:00 27.4 8 Sur 18 Sur 0 931.4 0.4 27
2019-07-06 10:00:00 25.8 4 Sur 12 Sudoeste 0 931.4 0.1 28
2019-07-06 09:00:00 22.1 5 Nordeste 10 Nordeste 0 930.8 -0.6 36
2019-07-06 08:00:00 18.5 4 Sudeste 9 Sur 0 931 -0.5 45
2019-07-06 07:00:00 17.8 6 Sudeste 10 Sudeste 0 931.3 -0.5 45
2019-07-06 06:00:00 18.1 5 Sur 8 Sudeste 0 931.4 -1.3 43
2019-07-06 05:00:00 19.1 3 Este 7 Nordeste 0 931.5 -1.4 37
2019-07-06 04:00:00 19.4 2 Norte 9 Sur 0 931.8 -1.1 37
2019-07-06 03:00:00 19.9 5 Sur 16 Sur 0 932.7 0.1 32
2019-07-06 02:00:00 21.5 8 Sur 17 Sur 0 932.9 0.6 27
2019-07-06 01:00:00 21.7 9 Sudoeste 13 Sudoeste 0 932.9 1.3 24
2019-07-06 00:00:00 23.7 9 Sudoeste 21 Sudoeste 0 932.6 1.2 20
2019-07-05 23:00:00 24.3 10 Sudoeste 18 Sudoeste 0 932.3 1.1 18
2019-07-05 22:00:00 26.5 10 Sudoeste 27 Sudoeste 0 931.6 0.1 14
2019-07-05 21:00:00 29.3 15 Sudoeste 31 Sudoeste 0 931.4 -0.5 12
2019-07-05 20:00:00 30.6 17 Sudoeste 34 Sudoeste 0 931.2 -0.7 12
2019-07-05 19:00:00 31.6 19 Sudoeste 37 Sudoeste 0 931.5 -0.9 11
2019-07-05 18:00:00 32.1 18 Sudoeste 36 Sudoeste 0 931.9 -0.7 13
2019-07-05 17:00:00 32.1 15 Sudoeste 39 Sudoeste 0 931.9 -1 13
2019-07-05 16:00:00 31.7 16 Sudoeste 37 Sudoeste 0 932.4 -0.8 21
2019-07-05 15:00:00 30.7 17 Sur 34 Sudoeste 0 932.6 -0.6 21
2019-07-05 14:00:00 30.3 12 Sur 28 Sur 0 932.9 -0.2 19
2019-07-05 13:00:00 29.4 12 Sur 28 Sur 0 933.2 0 26
2019-07-05 12:00:00 27.6 8 Sur 22 Sur 0 933.2 0.2 34
2019-07-05 11:00:00 26.1 7 Sudeste 21 Sudeste 0 933.1 0.1 39
2019-07-05 10:00:00 23.7 5 Sudeste 13 Sudeste 0 933.2 0.3 50
2019-07-05 09:00:00 19.7 3 Oeste 7 Oeste 0 933 0.1 65
2019-07-05 08:00:00 17 4 Oeste 5 Oeste 0 933 0.1 74
2019-07-05 07:00:00 16 2 Oeste 6 Sur 0 932.9 -0.1 76
2019-07-05 06:00:00 16.3 6 Sur 10 Sudeste 0 932.9 -0.2 73
2019-07-05 05:00:00 16.9 5 Sur 7 Sur 0 932.9 -0.2 71
2019-07-05 04:00:00 17.4 4 Sur 8 Sur 0 933 0.3 69
2019-07-05 03:00:00 18.4 5 Sur 9 Sur 0 933.1 0.9 64
2019-07-05 02:00:00 19.4 5 Sur 9 Sudoeste 0 933.1 1.6 59
2019-07-05 01:00:00 21 6 Sur 13 Sudoeste 0 932.7 1.9 52
2019-07-05 00:00:00 22.5 8 Sudoeste 14 Sudoeste 0 932.2 1.8 47
2019-07-04 23:00:00 23.4 9 Sudoeste 18 Sudoeste 0 931.5 1.3 41
2019-07-04 22:00:00 25.1 11 Oeste 23 Oeste 0 930.8 0.7 32
2019-07-04 21:00:00 27.8 13 Oeste 28 Sudoeste 0 930.4 0.1 29
2019-07-04 20:00:00 29.5 14 Sudoeste 28 Sudoeste 0 930.2 -0.3 27
2019-07-04 19:00:00 30.2 15 Sudoeste 34 Sudoeste 0 930.1 -0.6 25
2019-07-04 18:00:00 30.5 17 Sudoeste 32 Sudoeste 0 930.3 -0.7 25
2019-07-04 17:00:00 30.7 14 Sur 32 Sudoeste 0 930.5 -1 24
2019-07-04 16:00:00 30 12 Sur 37 Sudoeste 0 930.7 -0.8 24
2019-07-04 15:00:00 29.8 12 Sur 31 Sur 0 931 -0.6 28
2019-07-04 14:00:00 28.7 11 Sur 25 Sur 0 931.5 0.2 30
2019-07-04 13:00:00 27.1 11 Sur 26 Sudoeste 0 931.5 0.4 40
2019-07-04 12:00:00 25.9 11 Sur 27 Sur 0 931.6 0.9 45
2019-07-04 11:00:00 24.1 12 Sur 23 Sur 0 931.3 0.5 51
2019-07-04 10:00:00 21.7 8 Sur 17 Sudoeste 0 931.1 0.4 59
2019-07-04 09:00:00 19.7 3 Sudeste 8 Sur 0 930.7 0.3 67
2019-07-04 08:00:00 17.2 5 Sur 11 Sudeste 0 930.8 0.8 75
2019-07-04 07:00:00 16.2 5 Sur 9 Sudeste 0 930.7 0.7 78
2019-07-04 06:00:00 16.6 6 Sur 17 Sur 0 930.4 0.4 77
2019-07-04 05:00:00 17.7 10 Sur 21 Sur 0 930 0.1 73
2019-07-04 04:00:00 18.3 8 Sur 17 Sur 0 930 0.1 69
2019-07-04 03:00:00 19.3 9 Sur 16 Sur 0 930 0.4 64
2019-07-04 02:00:00 20.3 8 Sur 14 Sur 0 929.9 0.9 56
2019-07-04 01:00:00 21.2 5 Sur 15 Sudoeste 0 929.9 1.5 51
2019-07-04 00:00:00 22.6 8 Sudoeste 16 Sudoeste 0 929.6 1.4 47
2019-07-03 23:00:00 24.2 9 Sudoeste 18 Sudoeste 0 929 1 37
2019-07-03 22:00:00 26.2 6 Sur 23 Sudoeste 0 928.4 0.4 25
2019-07-03 21:00:00 29.3 13 Sudoeste 28 Sudoeste 0 928.2 0 18
2019-07-03 20:00:00 30.7 13 Sudoeste 29 Sur 0 928 -0.7 19
2019-07-03 19:00:00 31.5 13 Sudoeste 34 Sudoeste 0 928 -0.8 19
2019-07-03 18:00:00 31.8 14 Sudoeste 40 Sudoeste 0 928.2 -1 18
2019-07-03 17:00:00 32 15 Sur 36 Sur 0 928.7 -0.9 15
2019-07-03 16:00:00 31.7 11 Sur 28 Sur 0 928.8 -1 23
2019-07-03 15:00:00 31.2 13 Sur 31 Sudeste 0 929.2 -0.7 26
2019-07-03 14:00:00 29.6 12 Sudeste 32 Sur 0 929.6 -0.2 29
2019-07-03 13:00:00 29.7 11 Sur 24 Sudoeste 0 929.8 -0.2 30
2019-07-03 12:00:00 27.8 11 Sur 22 Sur 0 929.9 0 35
2019-07-03 11:00:00 26.3 9 Sudeste 19 Sur 0 929.8 0.2 41
2019-07-03 10:00:00 22.9 7 Sudoeste 18 Sudoeste 0 930 0.6 49
2019-07-03 09:00:00 18.9 9 Sudoeste 17 Sudoeste 0 929.9 0.4 59
2019-07-03 08:00:00 16.6 5 Sur 21 Sur 0 929.6 0.3 77
2019-07-03 07:00:00 16.6 11 Sur 22 Sur 0 929.4 0.1 75
2019-07-03 06:00:00 18.1 10 Sur 17 Sur 0 929.5 0 66
2019-07-03 05:00:00 19.4 9 Sur 14 Sur 0 929.3 -0.4 60
2019-07-03 04:00:00 20.1 9 Sur 15 Sur 0 929.3 -0.4 56
2019-07-03 03:00:00 20.9 7 Sur 12 Sur 0 929.5 -0.3 49
2019-07-03 02:00:00 22.4 7 Sur 13 Sudoeste 0 929.7 0.2 42
2019-07-03 01:00:00 23.2 8 Sudoeste 15 Sudoeste 0 929.7 0.9 40
2019-07-03 00:00:00 24.3 5 Noroeste 21 Sudoeste 0 929.8 1.4 37
2019-07-02 23:00:00 24.9 13 Sudoeste 22 Sur 0 929.5 1.2 33
2019-07-02 22:00:00 27.2 13 Sudoeste 26 Sudoeste 0 928.8 0.4 27
2019-07-02 21:00:00 30.2 15 Sudoeste 30 Sur 0 928.4 -0.4 22
2019-07-02 20:00:00 32 15 Sudoeste 27 Sur 0 928.3 -0.6 20
2019-07-02 19:00:00 33.4 12 Sur 30 Sudoeste 0 928.4 -1 18
2019-07-02 18:00:00 33.9 13 Sur 28 Sudoeste 0 928.8 -1.1 17
2019-07-02 17:00:00 33.1 12 Sudeste 31 Sur 0 928.9 -1.4 18
2019-07-02 16:00:00 33.4 8 Sur 28 Sudoeste 0 929.4 -1.4 19
2019-07-02 15:00:00 33.2 13 Sur 27 Sudeste 0 929.9 -1.2 20
2019-07-02 14:00:00 32.8 11 Sudoeste 24 Sur 0 930.3 -0.8 16
2019-07-02 13:00:00 30.5 4 Sudoeste 20 Noroeste 0 930.8 -0.5 17
2019-07-02 12:00:00 28.4 7 Noroeste 17 Oeste 0 931.1 0.1 23
2019-07-02 11:00:00 26.8 4 Este 13 Norte 0 931.1 0.5 27
2019-07-02 10:00:00 23.5 5 Norte 17 Noroeste 0 931.3 0.8 36
2019-07-02 09:00:00 20.9 5 Noroeste 13 Noroeste 0 931 0.5 45
2019-07-02 08:00:00 18.3 5 Noroeste 17 Noroeste 0 930.6 0.1 51
2019-07-02 07:00:00 18.1 11 Noroeste 21 Noroeste 0 930.5 -0.6 50
2019-07-02 06:00:00 18.5 9 Noroeste 14 Noroeste 0 930.5 -1 45
2019-07-02 05:00:00 19.5 7 Noroeste 14 Noroeste 0 930.5 -1.4 38
2019-07-02 04:00:00 20.5 8 Noroeste 14 Noroeste 0 931.1 -0.9 33
2019-07-02 03:00:00 21.5 9 Noroeste 16 Noroeste 0 931.5 -0.5 27
2019-07-02 02:00:00 22.4 9 Noroeste 15 Noroeste 0 931.9 0.3 25
2019-07-02 01:00:00 23.3 8 Noroeste 15 Noroeste 0 932 1.2 21
2019-07-02 00:00:00 24.5 9 Noroeste 17 Noroeste 0 932 1.5 24
2019-07-01 23:00:00 25.9 9 Norte 20 Noroeste 0 931.6 1.4 27
2019-07-01 22:00:00 27.6 12 Noroeste 28 Noroeste 0 930.8 0.5 28
2019-07-01 21:00:00 30.1 14 Noroeste 30 Noroeste 0 930.5 -0.3 26
2019-07-01 20:00:00 31.1 10 Noroeste 25 Oeste 0 930.2 -0.9 24
2019-07-01 19:00:00 32.3 13 Oeste 24 Noroeste 0 930.3 -1.5 24
2019-07-01 18:00:00 32.7 8 Oeste 23 Oeste 0 930.8 -1.4 22
2019-07-01 17:00:00 33.3 7 Nordeste 28 Oeste 0 931.1 -1.6 22
2019-07-01 16:00:00 31.9 10 Sudeste 24 Sudoeste 0 931.8 -1.3 26
2019-07-01 15:00:00 32.7 10 Sur 27 Sudoeste 0 932.2 -1.1 25
2019-07-01 14:00:00 31.9 8 Sudoeste 24 Sur 0 932.7 -0.8 28
2019-07-01 13:00:00 31.3 8 Sudoeste 26 Sudoeste 0 933.1 -0.5 28
2019-07-01 12:00:00 29 9 Sudoeste 23 Sudoeste 0 933.3 0 34
2019-07-01 11:00:00 26.6 4 Sudoeste 13 Oeste 0 933.5 0.5 41
2019-07-01 10:00:00 24.6 6 Sur 12 Sur 0 933.6 0.7 52
2019-07-01 09:00:00 21 2 Sudoeste 6 Oeste 0 933.3 0.2 65
2019-07-01 08:00:00 18.3 3 Sudoeste 8 Sur 0 933 -0.3 79
2019-07-01 07:00:00 17.8 5 Sudoeste 8 Oeste 0 932.9 -0.5 74
2019-07-01 06:00:00 18.3 4 Sudoeste 8 Sur 0 933.1 -0.5 79
2019-07-01 05:00:00 19.1 4 Sudoeste 11 Sudeste 0 933.3 -0.6 76
2019-07-01 04:00:00 20 7 Sur 15 Sur 0 933.4 -0.7 74
2019-07-01 03:00:00 21 10 Sur 18 Sur 0 933.6 -0.3 70
2019-07-01 02:00:00 22.2 9 Sur 18 Sudeste 0 933.9 0.9 65
2019-07-01 01:00:00 23.7 9 Sur 19 Sur 0 934.1 1.8 59
2019-07-01 00:00:00 25.3 8 Sur 17 Sur 0 933.9 2 50
2019-06-30 23:00:00 27 9 Sur 23 Sudoeste 0 933 1.1 33
2019-06-30 22:00:00 29 12 Sudoeste 24 Sudoeste 0 932.3 0.2 27
2019-06-30 21:00:00 31.6 15 Sudoeste 35 Sudoeste 0 931.9 -0.6 19
2019-06-30 20:00:00 33.4 16 Sudoeste 35 Sudoeste 0 931.9 -0.9 17
2019-06-30 19:00:00 34.1 18 Sudoeste 36 Sur 0 932.1 -0.9 14
2019-06-30 18:00:00 35 13 Sur 30 Sudoeste 0 932.5 -0.9 14
2019-06-30 17:00:00 35.4 11 Sur 32 Sudoeste 0 932.8 -0.9 14
2019-06-30 16:00:00 35.5 16 Sudoeste 32 Sudoeste 0 933 -1.1 12
2019-06-30 15:00:00 34.9 15 Sudoeste 37 Sudoeste 0 933.4 -0.6 12
2019-06-30 14:00:00 33.8 11 Sur 28 Sur 0 933.7 0 16
2019-06-30 13:00:00 32.6 12 Sudoeste 23 Sudoeste 0 934.1 0.5 25
2019-06-30 12:00:00 30.4 9 Sudoeste 22 Sudoeste 0 934 1 29
2019-06-30 11:00:00 27.9 4 Oeste 15 Oeste 0 933.7 1 37
2019-06-30 10:00:00 26.3 4 Norte 14 Norte 0 933.6 1.2 41
2019-06-30 09:00:00 23.3 6 Norte 13 Norte 0 933 0.9 54
2019-06-30 08:00:00 20.1 5 Sur 10 Sur 0 932.7 0.6 67
2019-06-30 07:00:00 20 3 Sudeste 10 Sudeste 0 932.4 0.4 67
2019-06-30 06:00:00 20.9 6 Sur 13 Sudeste 0 932.1 0 65
2019-06-30 05:00:00 21 8 Sudeste 13 Sudeste 0 932.1 0 63
2019-06-30 04:00:00 22 8 Sur 16 Sur 0 932 -0.1 56
2019-06-30 03:00:00 22.8 7 Sur 12 Sur 0 932.1 0.6 45
2019-06-30 02:00:00 24.5 8 Sur 14 Sur 0 932.1 1.4 37
2019-06-30 01:00:00 25.5 8 Sur 14 Sur 0 932.1 2.1 32
2019-06-30 00:00:00 27 6 Sudoeste 14 Sudoeste 0 931.5 1.9 26
2019-06-29 23:00:00 28.8 9 Sudoeste 17 Sudoeste 0 930.7 1.3 19
2019-06-29 22:00:00 31.3 10 Sudoeste 28 Sudoeste 0 930 0.8 14
2019-06-29 21:00:00 34.7 17 Sudoeste 31 Sudoeste 0 929.6 0.1 11
2019-06-29 20:00:00 37.2 15 Sudoeste 30 Sudoeste 0 929.4 -0.2 12
2019-06-29 19:00:00 38.7 12 Sudoeste 28 Sur 0 929.2 -0.8 9
2019-06-29 18:00:00 39.5 12 Sur 26 Sudoeste 0 929.5 -0.9 11
2019-06-29 17:00:00 40 12 Sudoeste 23 Sur 0 929.6 -1.3 13
2019-06-29 16:00:00 39.4 8 Sur 22 Sudeste 0 930 -1.3 12
2019-06-29 15:00:00 38.1 5 Sudoeste 22 Sudeste 0 930.4 -1.3 12
2019-06-29 14:00:00 36.3 9 Sudeste 26 Sudeste 0 930.9 -0.8 15
2019-06-29 13:00:00 34.8 9 Este 22 Este 0 931.3 -0.5 18
2019-06-29 12:00:00 33.2 9 Nordeste 23 Nordeste 0 931.7 0.1 22
2019-06-29 11:00:00 30.2 8 Nordeste 17 Norte 0 931.7 0.2 28
2019-06-29 10:00:00 28.5 3 Nordeste 7 Norte 0 931.8 0.6 31
2019-06-29 09:00:00 24.4 5 Sur 8 Sudoeste 0 931.6 0.3 40
2019-06-29 08:00:00 21.2 5 Este 9 Este 0 931.5 0.4 56
2019-06-29 07:00:00 21.1 5 Sudeste 12 Sudeste 0 931.2 -0.1 53
2019-06-29 06:00:00 21.6 5 Sudeste 17 Sur 0 931.3 -0.1 53
2019-06-29 05:00:00 22.1 11 Sur 18 Sudeste 0 931.1 -0.5 54
2019-06-29 04:00:00 22.8 9 Sur 21 Sur 0 931.3 -0.3 53
2019-06-29 03:00:00 23.9 11 Sur 19 Sur 0 931.4 0.4 46
2019-06-29 02:00:00 24.5 8 Sur 12 Sur 0 931.6 1.1 38
2019-06-29 01:00:00 25.7 8 Sur 16 Sur 0 931.6 1.8 35
2019-06-29 00:00:00 27.3 9 Sur 16 Sudoeste 0 931 1.4 31
2019-06-28 23:00:00 28.4 8 Sur 14 Sudoeste 0 930.5 1.3 28
2019-06-28 22:00:00 31.3 9 Sudoeste 23 Sudoeste 0 929.8 0.7 23
2019-06-28 21:00:00 34.7 12 Sudoeste 28 Sur 0 929.6 0.2 17
2019-06-28 20:00:00 37.2 12 Sudoeste 23 Sudoeste 0 929.2 -0.4 14
2019-06-28 19:00:00 38.2 9 Sur 25 Sur 0 929.1 -0.8 12
2019-06-28 18:00:00 39 10 Sur 30 Sur 0 929.4 -0.9 10
2019-06-28 17:00:00 38.8 13 Sur 33 Sur 0 929.6 -1 11
2019-06-28 16:00:00 38.9 10 Sur 35 Sudeste 0 929.9 -1.1 11
2019-06-28 15:00:00 37.7 13 Sudeste 34 Sudeste 0 930.3 -0.8 12
2019-06-28 14:00:00 36.7 14 Sudeste 40 Sudeste 0 930.6 -0.8 12
2019-06-28 13:00:00 35 13 Sudeste 28 Sudeste 0 931 -0.7 13
2019-06-28 12:00:00 33.6 10 Este 26 Este 0 931.1 -0.6 16
2019-06-28 11:00:00 30.8 12 Este 27 Este 0 931.4 -0.3 23
2019-06-28 10:00:00 28.3 8 Este 19 Este 0 931.7 0.1 31
2019-06-28 09:00:00 25 11 Este 25 Este 0 931.7 0.2 39
2019-06-28 08:00:00 22.7 10 Este 23 Este 0 931.7 -0.2 51
2019-06-28 07:00:00 19.7 6 Nordeste 14 Nordeste 0 931.6 -0.8 59
2019-06-28 06:00:00 20.1 7 Nordeste 11 Nordeste 0 931.5 -1.2 51
2019-06-28 05:00:00 20.6 4 Noroeste 9 Noroeste 0 931.9 -1.2 47
2019-06-28 04:00:00 21.9 7 Noroeste 13 Noroeste 0 932.4 -0.9 46
2019-06-28 03:00:00 22.5 6 Noroeste 10 Noroeste 0 932.7 -0.3 49
2019-06-28 02:00:00 23 5 Noroeste 9 Noroeste 0 933.1 0.6 50
2019-06-28 01:00:00 23.8 3 Sur 13 Sur 0 933.3 1.7 52
2019-06-28 00:00:00 24.9 7 Sur 13 Sudeste 0 933 1.8 48
2019-06-27 23:00:00 26.5 6 Sur 14 Sudoeste 0 932.5 1.8 38
2019-06-27 22:00:00 28.8 8 Sudoeste 20 Oeste 0 931.6 0.8 32
2019-06-27 21:00:00 31.3 10 Sudoeste 21 Sudoeste 0 931.2 0.3 27
2019-06-27 20:00:00 33 12 Sudoeste 27 Sur 0 930.7 -0.6 25
2019-06-27 19:00:00 33.6 12 Sudoeste 28 Sudoeste 0 930.8 -1 24
2019-06-27 18:00:00 33.8 15 Sudoeste 27 Sudoeste 0 930.9 -1.3 24
2019-06-27 17:00:00 33.9 14 Sudoeste 31 Sur 0 931.3 -1.1 25
2019-06-27 16:00:00 32.9 12 Sur 33 Sudeste 0 931.8 -0.9 26
2019-06-27 15:00:00 32.3 12 Sur 29 Sudeste 0 932.2 -0.4 27
2019-06-27 14:00:00 31.9 10 Sur 24 Sudoeste 0 932.4 -0.3 29
2019-06-27 13:00:00 29.6 8 Sur 26 Sudoeste 0 932.7 0.2 32
2019-06-27 12:00:00 28.7 9 Sur 24 Sudoeste 0 932.6 0.4 33
2019-06-27 11:00:00 26.8 5 Sur 15 Oeste 0 932.7 0.8 37
2019-06-27 10:00:00 23.8 5 Noroeste 12 Noroeste 0 932.5 0.7 45
2019-06-27 09:00:00 21.3 6 Noroeste 13 Noroeste 0 932.2 0.5 52
2019-06-27 08:00:00 19.1 5 Noroeste 13 Noroeste 0 931.9 0.3 60
2019-06-27 07:00:00 18.5 7 Noroeste 13 Noroeste 0 931.8 0.1 64
2019-06-27 06:00:00 19 8 Noroeste 14 Noroeste 0 931.7 -0.4 63
2019-06-27 05:00:00 19.5 8 Noroeste 14 Noroeste 0 931.6 -1.3 62
2019-06-27 04:00:00 20 6 Oeste 9 Oeste 0 931.7 -1.1 60
2019-06-27 03:00:00 20.1 4 Sudoeste 13 Sudeste 0 932.1 -0.4 60
2019-06-27 02:00:00 21.5 7 Sur 13 Sur 0 932.9 1 54
2019-06-27 01:00:00 22.7 6 Sur 16 Sur 0 932.8 1.7 49
2019-06-27 00:00:00 24 6 Sur 15 Sudoeste 0 932.5 1.7 44
2019-06-26 23:00:00 26.1 11 Sudoeste 22 Sudoeste 0 931.9 1.3 38
2019-06-26 22:00:00 27.9 10 Sudoeste 21 Sudoeste 0 931.1 0.6 33
2019-06-26 21:00:00 30.8 8 Sudoeste 22 Sudoeste 0 930.8 0 28
2019-06-26 20:00:00 32.1 9 Oeste 22 Oeste 0 930.6 -0.6 26
2019-06-26 19:00:00 32.6 11 Sudoeste 32 Oeste 0 930.5 -1.2 24
2019-06-26 18:00:00 32.2 8 Oeste 28 Sudoeste 0 930.8 -1.4 24
2019-06-26 17:00:00 32.2 10 Sur 27 Sur 0 931.2 -1.4 25
2019-06-26 16:00:00 31.9 14 Sudoeste 28 Sudoeste 0 931.7 -1.3 24
2019-06-26 15:00:00 31.2 13 Sur 28 Sur 0 932.2 -1 29
2019-06-26 14:00:00 29.7 9 Sur 27 Sur 0 932.6 -0.5 31
2019-06-26 13:00:00 29 11 Sur 27 Sur 0 933 0 32
2019-06-26 12:00:00 27.6 11 Sur 26 Sudoeste 0 933.2 0.7 36
2019-06-26 11:00:00 25.5 11 Sur 22 Sudoeste 0 933.1 1 41
2019-06-26 10:00:00 23.9 10 Sur 23 Sur 0 933 1.2 45
2019-06-26 09:00:00 20.9 8 Sur 18 Sudoeste 0 932.5 0.8 53
2019-06-26 08:00:00 18.8 6 Sur 12 Sur 0 932.1 0.6 54
2019-06-26 07:00:00 18.1 8 Sur 14 Sur 0 931.8 0.2 57
2019-06-26 06:00:00 18.4 8 Sur 13 Sur 0 931.7 0.2 52
2019-06-26 05:00:00 19.1 6 Sudeste 10 Sudeste 0 931.5 -0.2 48
2019-06-26 04:00:00 20.2 5 Sur 15 Sudoeste 0 931.6 0.1 45
2019-06-26 03:00:00 20.8 9 Sudoeste 14 Sudoeste 0 931.5 0.3 44
2019-06-26 02:00:00 22 5 Sur 15 Sudoeste 0 931.7 0.9 41
2019-06-26 01:00:00 23.3 4 Sur 19 Sudoeste 0 931.5 1.3 37
2019-06-26 00:00:00 24.7 10 Sudoeste 18 Sudoeste 0 931.2 1.3 35
2019-06-25 23:00:00 25.9 11 Sudoeste 17 Sudoeste 0 930.8 1.1 33
2019-06-25 22:00:00 27.9 8 Sudoeste 22 Sudoeste 0 930.2 0.5 28
2019-06-25 21:00:00 30.3 13 Sudoeste 27 Sudoeste 0 929.9 0 23
2019-06-25 20:00:00 31.9 12 Sudoeste 37 Sudoeste 0 929.7 -0.4 19
2019-06-25 19:00:00 32.9 13 Sudoeste 33 Sudoeste 0 929.7 -0.7 16
2019-06-25 18:00:00 33.4 12 Sudoeste 31 Sudoeste 0 929.9 -0.9 17
2019-06-25 17:00:00 33.1 12 Sudoeste 28 Sur 0 930.1 -1.3 17
2019-06-25 16:00:00 33 12 Sudoeste 27 Sudeste 0 930.4 -1.5 18
2019-06-25 15:00:00 31.2 9 Sur 32 Sur 0 930.8 -1.2 21
2019-06-25 14:00:00 30 12 Sur 32 Sudoeste 0 931.4 -0.5 26
2019-06-25 13:00:00 29.1 10 Sur 26 Sur 0 931.9 0 31
2019-06-25 12:00:00 27.5 10 Sur 24 Sur 0 932 0.4 35
2019-06-25 11:00:00 25.4 9 Sur 20 Sudeste 0 931.9 0.6 39
2019-06-25 10:00:00 22 8 Sudeste 15 Sur 0 931.9 1.1 59
2019-06-25 09:00:00 18.6 6 Sur 13 Sur 0 931.6 1.3 73
2019-06-25 08:00:00 16.6 5 Sur 11 Sur 0 931.3 1.1 78
2019-06-25 07:00:00 15.8 4 Sur 6 Sudeste 0 930.8 0 68
2019-06-25 06:00:00 16.5 3 Nordeste 11 Norte 0 930.3 -0.5 66
2019-06-25 05:00:00 17 5 Noroeste 9 Noroeste 0 930.2 -0.6 64
2019-06-25 04:00:00 17.8 3 Oeste 9 Noroeste 0 930.8 0 72
2019-06-25 03:00:00 18.7 3 Sur 11 Sur 0 930.8 0 67
2019-06-25 02:00:00 19.7 6 Sur 13 Sudoeste 0 930.8 0.5 63
2019-06-25 01:00:00 20.1 9 Sudoeste 13 Sudoeste 0 930.8 1 58
2019-06-25 00:00:00 21.1 4 Sudoeste 13 Sur 0 930.8 1.2 50
2019-06-24 23:00:00 22.9 7 Sur 16 Sudoeste 0 930.3 1.1 42
2019-06-24 22:00:00 25.1 11 Sudoeste 23 Sudoeste 0 929.8 0.7 33
2019-06-24 21:00:00 27.4 14 Sudoeste 27 Sudoeste 0 929.6 0.6 29
2019-06-24 20:00:00 29.1 14 Sudoeste 29 Sudoeste 0 929.2 0.1 24
2019-06-24 19:00:00 28.9 15 Sudoeste 28 Sudoeste 0 929.1 -0.2 21
2019-06-24 18:00:00 31 11 Sudoeste 30 Sudoeste 0 929 -0.6 21
2019-06-24 17:00:00 30 10 Sudoeste 28 Sudoeste 0 929.1 -0.9 23
2019-06-24 16:00:00 28.7 11 Sudoeste 28 Sudoeste 0 929.3 -0.7 26
2019-06-24 15:00:00 28.6 11 Sudoeste 30 Sur 0 929.6 -0.6 26
2019-06-24 14:00:00 27.1 11 Sur 25 Sudoeste 0 930 -0.2 27
2019-06-24 13:00:00 27.7 12 Sur 28 Sur 0 930 -0.2 25
2019-06-24 12:00:00 26.6 9 Sudoeste 22 Sudoeste 0 930.2 0.4 27
2019-06-24 11:00:00 24.3 7 Sudoeste 18 Sudoeste 0 930.2 0.7 32
2019-06-24 10:00:00 21.7 6 Sudoeste 13 Oeste 0 930.2 1.1 44
2019-06-24 09:00:00 19.7 7 Sur 13 Sur 0 929.8 0.6 59
2019-06-24 08:00:00 18.2 5 Sur 9 Sudeste 0 929.5 0.4 62
2019-06-24 07:00:00 18 5 Oeste 7 Oeste 0 929.1 -0.2 60
2019-06-24 06:00:00 17.8 4 Sur 9 Sur 0 929.2 -0.3 60
2019-06-24 05:00:00 18.5 6 Sur 10 Sur 0 929.1 -0.3 59
2019-06-24 04:00:00 19.4 6 Sur 11 Sudoeste 0 929.3 0 52
2019-06-24 03:00:00 21.1 6 Sudoeste 14 Oeste 0 929.5 0.4 43
2019-06-24 02:00:00 22.2 8 Oeste 19 Oeste 0 929.4 0.8 35
2019-06-24 01:00:00 23.4 9 Sudoeste 15 Oeste 0 929.3 1.4 38
2019-06-24 00:00:00 23.5 8 Sudoeste 14 Sudoeste 0 929.1 1.5 34
2019-06-23 23:00:00 24.4 9 Sudoeste 18 Sudoeste 0 928.6 1.2 30
2019-06-23 22:00:00 26.5 8 Sudoeste 21 Sudoeste 0 927.9 0.5 25
2019-06-23 21:00:00 29.2 11 Sudoeste 27 Oeste 0 927.6 0 19
2019-06-23 20:00:00 31.2 10 Sudoeste 30 Sudoeste 0 927.4 -0.5 16
2019-06-23 19:00:00 32.2 16 Sudoeste 32 Oeste 0 927.4 -0.8 12
2019-06-23 18:00:00 33 18 Sudoeste 37 Oeste 0 927.6 -1.2 12
2019-06-23 17:00:00 33.3 18 Sudoeste 39 Sudoeste 0 927.9 -1.2 12
2019-06-23 16:00:00 33.7 14 Sudoeste 32 Sur 0 928.2 -1.3 13
2019-06-23 15:00:00 32.4 15 Sur 38 Sur 0 928.8 -0.9 13
2019-06-23 14:00:00 31 12 Sudoeste 33 Sur 0 929.1 -0.8 17
2019-06-23 13:00:00 30.2 8 Sur 22 Sudoeste 0 929.5 -0.5 21
2019-06-23 12:00:00 28.4 9 Sudeste 20 Sur 0 929.7 -0.2 25
2019-06-23 11:00:00 26.7 6 Sudoeste 15 Sudeste 0 929.9 0.1 26
2019-06-23 10:00:00 24.6 5 Nordeste 10 Este 0 930 0.4 26
2019-06-23 09:00:00 20.6 3 Este 8 Nordeste 0 929.9 0.5 32
2019-06-23 08:00:00 18 2 Sudeste 7 Nordeste 0 929.8 0.6 46
2019-06-23 07:00:00 15.2 5 Nordeste 11 Sudoeste 0 929.6 0.1 58
2019-06-23 06:00:00 16.5 7 Sudoeste 14 Sur 0 929.4 -0.3 55
2019-06-23 05:00:00 17.1 8 Sur 18 Sur 0 929.2 -0.5 54
2019-06-23 04:00:00 17.9 10 Sur 17 Sur 0 929.5 -0.1 49
2019-06-23 03:00:00 19.1 11 Sur 18 Sur 0 929.7 0.2 40
2019-06-23 02:00:00 20.3 5 Sudoeste 10 Sur 0 929.7 0.5 29
2019-06-23 01:00:00 21.2 8 Sudoeste 11 Sudoeste 0 929.6 0.9 27
2019-06-23 00:00:00 22.4 7 Sudoeste 14 Sudoeste 0 929.5 1 22
2019-06-22 23:00:00 24.7 10 Sudoeste 18 Sudoeste 0 929.2 0.9 19
2019-06-22 22:00:00 26.2 9 Sudoeste 23 Sudoeste 0 928.7 0.3 17
2019-06-22 21:00:00 29.6 9 Sudoeste 24 Sudoeste 0 928.5 -0.2 14
2019-06-22 20:00:00 30.5 12 Sudoeste 27 Sudoeste 0 928.3 -0.9 13
2019-06-22 19:00:00 31.1 13 Sur 26 Sudoeste 0 928.4 -1.4 13
2019-06-22 18:00:00 31.8 7 Este 27 Sudoeste 0 928.7 -1.5 12
2019-06-22 17:00:00 31.7 9 Sur 27 Sudeste 0 929.2 -1.5 13
2019-06-22 16:00:00 31.4 12 Sudoeste 28 Sudoeste 0 929.8 -1.4 13
2019-06-22 15:00:00 30.1 8 Sudoeste 27 Sudoeste 0 930.2 -1.1 14
2019-06-22 14:00:00 29.1 8 Sudeste 27 Sudoeste 0 930.7 -0.5 17
2019-06-22 13:00:00 29 10 Sur 27 Sur 0 931.2 0.1 19
2019-06-22 12:00:00 28 9 Sur 28 Sur 0 931.3 0.3 22
2019-06-22 11:00:00 26.5 7 Sur 14 Sudoeste 0 931.2 0.5 22
2019-06-22 10:00:00 23.6 4 Nordeste 9 Norte 0 931.1 0.9 29
2019-06-22 09:00:00 21.1 4 Norte 9 Noroeste 0 931 0.9 35
2019-06-22 08:00:00 17.5 6 Noroeste 16 Noroeste 0 930.7 0.5 49
2019-06-22 07:00:00 17.1 7 Noroeste 12 Noroeste 0 930.2 -0.1 45
2019-06-22 06:00:00 17.8 7 Norte 15 Noroeste 0 930.1 -0.5 40
2019-06-22 05:00:00 18.9 9 Noroeste 15 Noroeste 0 930.2 -0.7 29
2019-06-22 04:00:00 18.7 5 Norte 8 Norte 0 930.3 -0.7 31
2019-06-22 03:00:00 19 6 Norte 9 Nordeste 0 930.6 -0.4 28
2019-06-22 02:00:00 19.5 5 Norte 9 Noroeste 0 930.9 0.2 27
2019-06-22 01:00:00 20.3 6 Norte 10 Norte 0 931 0.8 26
2019-06-22 00:00:00 21 6 Norte 13 Norte 0 931 1 28
2019-06-21 23:00:00 22.2 6 Noroeste 15 Noroeste 0 930.7 1 27
2019-06-21 22:00:00 23.6 8 Noroeste 22 Noroeste 0 930.2 0.7 25
2019-06-21 21:00:00 25.1 9 Noroeste 27 Noroeste 0 930 0.4 24
2019-06-21 20:00:00 26.7 9 Noroeste 28 Noroeste 0 929.7 -0.1 18
2019-06-21 19:00:00 27.6 6 Noroeste 31 Noroeste 0 929.5 -0.5 16
2019-06-21 18:00:00 28.1 12 Noroeste 30 Oeste 0 929.6 -0.8 16
2019-06-21 17:00:00 28 9 Noroeste 35 Noroeste 0 929.8 -0.9 17
2019-06-21 16:00:00 27.8 9 Oeste 36 Noroeste 0 930 -1.1 20
2019-06-21 15:00:00 27.1 8 Sudoeste 23 Noroeste 0 930.4 -0.9 23
2019-06-21 14:00:00 26.2 9 Oeste 22 Sudoeste 0 930.7 -0.5 24
2019-06-21 13:00:00 25 9 Oeste 25 Oeste 0 931.1 -0.1 28
2019-06-21 12:00:00 23.5 8 Oeste 22 Oeste 0 931.3 0.4 33
2019-06-21 11:00:00 21.3 6 Oeste 17 Oeste 0 931.2 0.6 41
2019-06-21 10:00:00 19.6 5 Sudoeste 11 Norte 0 931.2 0.9 44
2019-06-21 09:00:00 15.9 3 Noroeste 12 Noroeste 0 930.9 0.8 62
2019-06-21 08:00:00 13.8 6 Noroeste 10 Noroeste 0 930.6 0.3 70
2019-06-21 07:00:00 12.8 5 Noroeste 13 Noroeste 0 930.3 0.3 74
2019-06-21 06:00:00 13.5 7 Noroeste 21 Noroeste 0 930.1 -0.1 71
2019-06-21 05:00:00 14.3 12 Noroeste 22 Noroeste 0 930.3 0.2 67
2019-06-21 04:00:00 15.6 12 Noroeste 23 Noroeste 0 930 -0.2 61
2019-06-21 03:00:00 16.8 9 Noroeste 23 Noroeste 0 930.2 0.3 56
2019-06-21 02:00:00 17.7 10 Noroeste 22 Noroeste 0 930.1 0.6 51
2019-06-21 01:00:00 18.3 9 Noroeste 20 Noroeste 0 930.2 1.3 46
2019-06-21 00:00:00 19.4 8 Noroeste 19 Noroeste 0 929.9 1.7 44
2019-06-20 23:00:00 20.6 4 Noroeste 25 Sudoeste 0 929.5 1.5 44
2019-06-20 22:00:00 22.6 13 Sudoeste 31 Sudoeste 0 928.9 1 41
2019-06-20 21:00:00 24.6 16 Sudoeste 37 Oeste 0 928.2 0 34
2019-06-20 20:00:00 27.5 14 Oeste 30 Oeste 0 928 -0.4 28
2019-06-20 19:00:00 27.8 10 Oeste 26 Sudoeste 0 927.9 -1 27
2019-06-20 18:00:00 27.6 16 Sudoeste 36 Sudoeste 0 928.2 -1 29
2019-06-20 17:00:00 27.4 12 Sudoeste 33 Sudoeste 0 928.4 -1.1 29
2019-06-20 16:00:00 26.9 12 Sudoeste 27 Sudoeste 0 928.9 -1.1 30
2019-06-20 15:00:00 27.3 9 Oeste 29 Oeste 0 929.2 -0.8 27
2019-06-20 14:00:00 27.7 10 Sudoeste 27 Noroeste 0 929.5 -0.6 30
2019-06-20 13:00:00 26.7 9 Sur 23 Sudoeste 0 930 -0.1 33
2019-06-20 12:00:00 24.5 9 Oeste 17 Oeste 0 930 -0.2 40
2019-06-20 11:00:00 22.2 8 Oeste 17 Noroeste 0 930.1 0 48
2019-06-20 10:00:00 19.4 8 Noroeste 15 Noroeste 0 930.1 0.1 59
2019-06-20 09:00:00 17.2 5 Noroeste 12 Oeste 0 930.2 0.3 67
2019-06-20 08:00:00 14.9 6 Oeste 13 Oeste 0 930.1 0.3 76
2019-06-20 07:00:00 14.4 5 Oeste 13 Noroeste 0 930 -0.1 76
2019-06-20 06:00:00 15 6 Noroeste 10 Oeste 0 929.9 -0.6 73
2019-06-20 05:00:00 15.6 3 Oeste 14 Noroeste 0 929.8 -0.8 65
2019-06-20 04:00:00 16.8 8 Noroeste 14 Noroeste 0 930.1 -0.6 62
2019-06-20 03:00:00 17.5 8 Noroeste 14 Norte 0 930.5 -0.3 59
2019-06-20 02:00:00 17.9 8 Noroeste 14 Noroeste 0 930.6 0.1 56
2019-06-20 01:00:00 18.7 8 Noroeste 16 Norte 0 930.7 0.7 53
2019-06-20 00:00:00 19.5 8 Norte 17 Norte 0 930.8 1.2 51
2019-06-19 23:00:00 20.5 7 Norte 24 Noroeste 0 930.5 1 48
2019-06-19 22:00:00 22.1 13 Noroeste 26 Noroeste 0 930 0.6 42
2019-06-19 21:00:00 25.8 10 Noroeste 28 Noroeste 0 929.6 -0.1 28
2019-06-19 20:00:00 25.8 14 Noroeste 29 Oeste 0 929.5 -0.6 28
2019-06-19 19:00:00 27.3 13 Noroeste 32 Oeste 0 929.4 -1.3 26
2019-06-19 18:00:00 28.3 11 Oeste 29 Sudoeste 0 929.7 -1.4 25
2019-06-19 17:00:00 29.1 13 Sudoeste 28 Oeste 0 930.1 -1.6 22
2019-06-19 16:00:00 27 9 Oeste 28 Oeste 0 930.7 -1.4 30
2019-06-19 15:00:00 27.3 10 Sudoeste 25 Oeste 0 931.1 -1.1 29
2019-06-19 14:00:00 26.1 9 Sudoeste 23 Oeste 0 931.7 -0.3 32
2019-06-19 13:00:00 24.3 10 Sudoeste 24 Sudoeste 0 932.1 0.1 41
2019-06-19 12:00:00 22 6 Sudeste 17 Sudoeste 0 932.2 0.3 51
2019-06-19 11:00:00 21.8 6 Sur 16 Sudoeste 0 932 0.3 51
2019-06-19 10:00:00 18.7 4 Noroeste 19 Noroeste 0 932 0.5 63
2019-06-19 09:00:00 16.2 11 Noroeste 18 Noroeste 0 931.9 0.5 79
2019-06-19 08:00:00 14 5 Sur 10 Sur 0 931.7 0.5 90
2019-06-19 07:00:00 13.7 5 Sur 11 Sur 0 931.5 0.4 89
2019-06-19 06:00:00 13.6 8 Sur 12 Sur 0 931.4 0.1 87
2019-06-19 05:00:00 14 6 Sur 14 Sur 0 931.2 -0.3 84
2019-06-19 04:00:00 14.5 6 Sur 10 Sudeste 0 931.1 -0.6 78
2019-06-19 03:00:00 15.5 5 Sur 10 Sudeste 0 931.3 -0.3 70
2019-06-19 02:00:00 17 5 Sudeste 10 Sudeste 0 931.5 0.3 67
2019-06-19 01:00:00 17.8 3 Sur 17 Sudoeste 0 931.7 1.1 62
2019-06-19 00:00:00 19.3 10 Sudoeste 23 Sudoeste 0 931.6 1.1 59
2019-06-18 23:00:00 20.5 13 Sudoeste 27 Sudoeste 0 931.2 0.9 52
2019-06-18 22:00:00 22.2 13 Sudoeste 26 Sudoeste 0 930.6 0.5 39
2019-06-18 21:00:00 24.8 14 Sudoeste 31 Sudoeste 0 930.5 0.1 28
2019-06-18 20:00:00 26.3 19 Sudoeste 42 Sudoeste 0 930.3 -0.1 22
2019-06-18 19:00:00 27.4 19 Sudoeste 37 Sudoeste 0 930.1 -0.5 14
2019-06-18 18:00:00 27.6 17 Sudoeste 37 Sudoeste 0 930.4 -0.5 12
2019-06-18 17:00:00 28.6 14 Sur 39 Sudoeste 0 930.4 -0.6 11
2019-06-18 16:00:00 27.8 16 Sudoeste 40 Sudoeste 0 930.6 -0.7 14
2019-06-18 15:00:00 27 19 Sudoeste 43 Sur 0 930.9 -0.4 17
2019-06-18 14:00:00 26.1 19 Sudoeste 44 Sudoeste 0 931 -0.4 21
2019-06-18 13:00:00 25.6 18 Sur 40 Sur 0 931.3 0.3 24
2019-06-18 12:00:00 24.2 17 Sudoeste 35 Sur 0 931.3 0.4 24
2019-06-18 11:00:00 23.4 12 Sudoeste 27 Sudoeste 0 931.4 0.7 28
2019-06-18 10:00:00 21.8 6 Sur 19 Sur 0 931 0.5 32
2019-06-18 09:00:00 18.6 8 Sur 15 Sur 0 930.9 0.6 39
2019-06-18 08:00:00 16.4 6 Sudeste 13 Sudeste 0 930.7 0.4 47
2019-06-18 07:00:00 15.2 8 Sudeste 13 Sudeste 0 930.5 0 50
2019-06-18 06:00:00 15.9 6 Sur 13 Sur 0 930.3 -0.5 46
2019-06-18 05:00:00 17 6 Sur 13 Sur 0 930.3 -0.6 44
2019-06-18 04:00:00 18 8 Sur 14 Sur 0 930.5 -0.5 39
2019-06-18 03:00:00 18.6 8 Sudoeste 19 Sudoeste 0 930.8 -0.1 34
2019-06-18 02:00:00 19.2 6 Sudoeste 14 Sudoeste 0 930.9 0.4 27
2019-06-18 01:00:00 20.2 9 Sudoeste 18 Sudoeste 0 931 0.9 24
2019-06-18 00:00:00 21.3 9 Sudoeste 18 Sudoeste 0 930.9 0.8 23
2019-06-17 23:00:00 22.3 9 Oeste 17 Sudoeste 0 930.5 0.4 23
2019-06-17 22:00:00 23.9 9 Oeste 25 Sudoeste 0 930.1 0.3 19
2019-06-17 21:00:00 27.1 13 Sudoeste 28 Sudoeste 0 930.1 0 14
2019-06-17 20:00:00 28.7 15 Sudoeste 36 Sudoeste 0 930.1 -0.6 11
2019-06-17 19:00:00 29.7 17 Sudoeste 38 Sudoeste 0 929.8 -1.2 12
2019-06-17 18:00:00 30 12 Sur 36 Sur 0 930.1 -1.5 13
2019-06-17 17:00:00 29.4 14 Sur 39 Sudoeste 0 930.7 -1.5 12
2019-06-17 16:00:00 29.8 17 Sudoeste 40 Sudoeste 0 931 -1.8 13
2019-06-17 15:00:00 29 13 Sur 32 Sudeste 0 931.6 -1.4 14
2019-06-17 14:00:00 28.1 11 Sur 28 Sur 0 932.2 -0.8 18
2019-06-17 13:00:00 26.7 10 Sur 23 Sudeste 0 932.8 -0.3 21
2019-06-17 12:00:00 25.9 10 Sur 22 Sudeste 0 933 -0.3 26
2019-06-17 11:00:00 24.1 8 Sudoeste 19 Sudoeste 0 933 -0.2 27
2019-06-17 10:00:00 22.5 4 Sudeste 9 Sudeste 0 933.1 0 28
2019-06-17 09:00:00 18.7 4 Oeste 9 Oeste 0 933.3 0.5 30
2019-06-17 08:00:00 15.7 4 Noroeste 9 Oeste 0 933.2 0.3 44
2019-06-17 07:00:00 13.4 6 Oeste 9 Sur 0 933.1 0.1 53
2019-06-17 06:00:00 13.8 7 Sur 10 Sur 0 932.8 -0.5 52
2019-06-17 05:00:00 13.8 6 Sur 12 Sur 0 932.9 -0.5 52
2019-06-17 04:00:00 14.5 6 Sur 16 Sur 0 933 -0.4 47
2019-06-17 03:00:00 15.9 8 Sur 20 Sudoeste 0 933.3 0 41
2019-06-17 02:00:00 17.6 9 Sur 24 Sudoeste 0 933.4 0.3 36
2019-06-17 01:00:00 18.5 12 Sudoeste 17 Sudoeste 0 933.4 0.8 33
2019-06-17 00:00:00 18.9 8 Sudoeste 14 Sudoeste 0 933.3 1 35
2019-06-16 23:00:00 19.8 9 Sudoeste 13 Sudoeste 0 933.1 0.9 33
2019-06-16 22:00:00 22.3 11 Sudoeste 26 Sudoeste 0 932.6 0.6 26
2019-06-16 21:00:00 25.3 13 Sudoeste 28 Sudoeste 0 932.3 0.1 20
2019-06-16 20:00:00 26.5 14 Sudoeste 24 Oeste 0 932.2 -0.1 17
2019-06-16 19:00:00 28.3 12 Sur 31 Sudoeste 0 932 -0.5 15
2019-06-16 18:00:00 25.8 13 Sudoeste 27 Sudoeste 0 932.2 -0.4 19
2019-06-16 17:00:00 27 13 Sur 29 Sudoeste 0 932.3 -0.7 17
2019-06-16 16:00:00 27.1 10 Sur 23 Oeste 0 932.5 -0.5 17
2019-06-16 15:00:00 26.7 10 Sur 23 Sudoeste 0 932.6 -0.4 17
2019-06-16 14:00:00 27.1 10 Sudoeste 24 Sur 0 933 0 15
2019-06-16 13:00:00 27.8 10 Sur 27 Sur 0 933 0.2 14
2019-06-16 12:00:00 27.4 10 Sur 22 Sudoeste 0 933 0.4 14
2019-06-16 11:00:00 25.6 6 Sur 18 Sur 0 933 0.7 18
2019-06-16 10:00:00 22 5 Sudeste 15 Sudeste 0 932.8 1.1 23
2019-06-16 09:00:00 19.1 4 Sur 7 Sudeste 0 932.6 1 27
2019-06-16 08:00:00 16.2 4 Norte 10 Sudeste 0 932.3 0.6 31
2019-06-16 07:00:00 17.7 7 Sudeste 14 Este 0 931.7 -0.3 27
2019-06-16 06:00:00 16.6 8 Este 15 Este 0 931.6 -0.9 30
2019-06-16 05:00:00 16.1 8 Este 10 Este 0 931.7 -1.4 30
2019-06-16 04:00:00 15.5 6 Este 10 Nordeste 0 932 -1.6 30
2019-06-16 03:00:00 15.7 8 Nordeste 10 Nordeste 0 932.5 -1.2 29
2019-06-16 02:00:00 16 5 Norte 12 Norte 0 933.1 -0.3 28
2019-06-16 01:00:00 16.6 7 Norte 13 Norte 0 933.6 0.8 28
2019-06-16 00:00:00 17.9 8 Norte 13 Norte 0 933.7 1 27